createdAt,value
2018-05-26T00:00:39.352Z,20.40
2018-05-26T00:03:06.869Z,20.40
2018-05-26T00:05:34.396Z,20.30
2018-05-26T00:08:01.930Z,20.30
2018-05-26T00:10:29.456Z,20.30
2018-05-26T00:12:56.978Z,20.30
2018-05-26T00:15:24.498Z,20.20
2018-05-26T00:17:52.028Z,20.20
2018-05-26T00:20:19.543Z,20.20
2018-05-26T00:22:52.773Z,20.10
2018-05-26T00:25:20.296Z,20.10
2018-05-26T00:27:48.587Z,20.00
2018-05-26T00:30:16.108Z,20.00
2018-05-26T00:32:43.636Z,20.00
2018-05-26T00:35:11.155Z,19.90
2018-05-26T00:37:39.442Z,19.90
2018-05-26T00:40:06.971Z,19.80
2018-05-26T00:42:34.491Z,19.80
2018-05-26T00:45:02.023Z,19.80
2018-05-26T00:47:29.547Z,19.70
2018-05-26T00:49:57.067Z,19.70
2018-05-26T00:52:24.579Z,19.70
2018-05-26T00:54:52.091Z,19.70
2018-05-26T00:57:19.610Z,19.60
2018-05-26T00:59:47.154Z,19.60
2018-05-26T01:02:14.668Z,19.60
2018-05-26T01:04:42.209Z,19.60
2018-05-26T01:07:09.723Z,19.60
2018-05-26T01:09:37.261Z,19.60
2018-05-26T01:12:05.547Z,19.60
2018-05-26T01:14:33.093Z,19.50
2018-05-26T01:17:00.613Z,19.60
2018-05-26T01:19:28.134Z,19.60
2018-05-26T01:21:56.430Z,19.60
2018-05-26T01:24:23.959Z,19.60
2018-05-26T01:26:51.481Z,19.60
2018-05-26T01:29:18.994Z,19.60
2018-05-26T01:31:46.516Z,19.60
2018-05-26T01:34:14.032Z,19.60
2018-05-26T01:36:41.558Z,19.60
2018-05-26T01:39:09.071Z,19.60
2018-05-26T01:41:36.603Z,19.70
2018-05-26T01:44:04.127Z,19.70
2018-05-26T01:46:31.642Z,19.70
2018-05-26T01:48:59.176Z,19.70
2018-05-26T01:51:26.707Z,19.70
2018-05-26T01:53:54.238Z,19.70
2018-05-26T01:56:21.763Z,19.70
2018-05-26T01:58:49.289Z,19.60
2018-05-26T02:01:16.812Z,19.60
2018-05-26T02:03:44.335Z,19.60
2018-05-26T02:06:11.860Z,19.60
2018-05-26T02:08:39.380Z,19.50
2018-05-26T02:11:06.902Z,19.50
2018-05-26T02:13:34.439Z,19.50
2018-05-26T02:16:01.964Z,19.50
2018-05-26T02:18:29.491Z,19.50
2018-05-26T02:20:57.010Z,19.40
2018-05-26T02:23:24.528Z,19.40
2018-05-26T02:25:52.043Z,19.50
2018-05-26T02:28:19.568Z,19.50
2018-05-26T02:30:47.106Z,19.50
2018-05-26T02:33:14.633Z,19.50
2018-05-26T02:35:42.183Z,19.40
2018-05-26T02:38:09.699Z,19.40
2018-05-26T02:40:38.003Z,19.40
2018-05-26T02:43:05.519Z,19.40
2018-05-26T02:45:33.062Z,19.30
2018-05-26T02:48:00.589Z,19.30
2018-05-26T02:50:28.116Z,19.30
2018-05-26T02:52:55.641Z,19.20
2018-05-26T02:55:23.938Z,19.10
2018-05-26T02:57:51.454Z,19.10
2018-05-26T03:00:18.978Z,19.10
2018-05-26T03:02:46.496Z,19.10
2018-05-26T03:05:19.711Z,19.10
2018-05-26T03:07:52.804Z,19.00
2018-05-26T03:10:25.899Z,19.00
2018-05-26T03:12:59.184Z,19.00
2018-05-26T03:15:26.204Z,19.00
2018-05-26T03:17:59.447Z,18.90
2018-05-26T03:20:27.101Z,18.90
2018-05-26T03:22:54.643Z,18.90
2018-05-26T03:25:22.172Z,18.90
2018-05-26T03:27:49.687Z,18.90
2018-05-26T03:30:17.971Z,18.90
2018-05-26T03:32:45.486Z,18.80
2018-05-26T03:35:12.999Z,18.80
2018-05-26T03:37:40.521Z,18.80
2018-05-26T03:40:08.055Z,18.80
2018-05-26T03:42:36.335Z,18.80
2018-05-26T03:45:03.864Z,18.80
2018-05-26T03:47:31.396Z,18.80
2018-05-26T03:49:59.678Z,18.80
2018-05-26T03:52:27.191Z,18.80
2018-05-26T03:58:16.643Z,18.80
2018-05-26T04:00:44.171Z,18.80
2018-05-26T04:03:11.700Z,18.80
2018-05-26T04:05:39.847Z,18.80
2018-05-26T04:08:07.366Z,18.80
2018-05-26T04:10:34.882Z,18.80
2018-05-26T04:13:02.398Z,18.90
2018-05-26T04:15:29.920Z,18.90
2018-05-26T04:17:57.440Z,18.90
2018-05-26T04:20:24.964Z,18.90
2018-05-26T04:22:52.483Z,19.00
2018-05-26T04:25:19.996Z,19.00
2018-05-26T04:27:47.515Z,19.00
2018-05-26T04:30:15.059Z,19.00
2018-05-26T04:32:42.586Z,19.10
2018-05-26T04:35:10.104Z,19.10
2018-05-26T04:37:37.629Z,19.10
2018-05-26T04:40:05.141Z,19.20
2018-05-26T04:42:32.658Z,19.20
2018-05-26T04:45:00.162Z,19.30
2018-05-26T04:47:27.675Z,19.30
2018-05-26T04:49:55.191Z,19.40
2018-05-26T04:52:22.712Z,19.40
2018-05-26T04:54:50.227Z,19.50
2018-05-26T04:57:17.758Z,19.50
2018-05-26T04:59:45.288Z,19.50
2018-05-26T05:02:12.832Z,19.60
2018-05-26T05:04:40.343Z,19.70
2018-05-26T05:07:07.885Z,19.80
2018-05-26T05:09:35.406Z,19.80
2018-05-26T05:12:02.946Z,19.90
2018-05-26T05:14:30.468Z,20.00
2018-05-26T05:16:58.002Z,20.00
2018-05-26T05:19:25.539Z,20.10
2018-05-26T05:21:53.059Z,20.20
2018-05-26T05:24:20.603Z,20.30
2018-05-26T05:26:48.148Z,20.40
2018-05-26T05:29:15.670Z,20.50
2018-05-26T05:31:43.186Z,20.60
2018-05-26T05:34:10.708Z,20.70
2018-05-26T05:36:38.231Z,20.80
2018-05-26T05:39:05.747Z,20.90
2018-05-26T05:41:33.263Z,21.00
2018-05-26T05:44:01.547Z,21.20
2018-05-26T05:46:29.075Z,21.20
2018-05-26T05:48:56.603Z,21.40
2018-05-26T05:51:24.110Z,21.50
2018-05-26T05:53:52.398Z,22.00
2018-05-26T05:56:19.953Z,22.00
2018-05-26T05:58:47.455Z,22.30
2018-05-26T06:01:14.980Z,22.80
2018-05-26T06:03:43.267Z,25.10
2018-05-26T06:06:10.781Z,25.00
2018-05-26T06:08:38.304Z,26.30
2018-05-26T06:11:05.823Z,27.40
2018-05-26T06:13:34.104Z,29.40
2018-05-26T06:16:01.650Z,29.30
2018-05-26T06:18:29.176Z,30.30
2018-05-26T06:20:56.691Z,31.10
2018-05-26T06:23:24.975Z,32.30
2018-05-26T06:25:52.495Z,32.20
2018-05-26T06:28:20.026Z,32.80
2018-05-26T06:30:47.548Z,33.30
2018-05-26T06:33:15.840Z,34.60
2018-05-26T06:35:43.370Z,34.50
2018-05-26T06:38:10.895Z,35.20
2018-05-26T06:40:38.423Z,35.80
2018-05-26T06:43:05.977Z,36.40
2018-05-26T06:45:33.496Z,36.50
2018-05-26T06:48:01.039Z,37.10
2018-05-26T06:50:28.623Z,37.70
2018-05-26T06:52:56.165Z,38.20
2018-05-26T06:55:23.700Z,38.60
2018-05-26T06:57:51.228Z,38.90
2018-05-26T07:00:18.793Z,39.20
2018-05-26T07:02:46.292Z,39.00
2018-05-26T07:05:13.816Z,38.50
2018-05-26T07:07:41.336Z,37.90
2018-05-26T07:10:08.862Z,38.00
2018-05-26T07:12:36.380Z,38.00
2018-05-26T07:15:04.663Z,36.30
2018-05-26T07:17:32.185Z,36.20
2018-05-26T07:19:59.718Z,35.90
2018-05-26T07:22:27.855Z,35.60
2018-05-26T07:24:55.370Z,35.20
2018-05-26T07:27:22.887Z,34.60
2018-05-26T07:29:50.408Z,34.20
2018-05-26T07:32:17.931Z,34.00
2018-05-26T07:34:45.454Z,33.40
2018-05-26T07:37:12.996Z,33.10
2018-05-26T07:39:40.516Z,33.00
2018-05-26T07:42:08.047Z,33.10
2018-05-26T07:44:35.584Z,33.60
2018-05-26T07:47:03.116Z,34.60
2018-05-26T07:49:30.752Z,35.80
2018-05-26T07:51:58.280Z,37.10
2018-05-26T07:54:26.594Z,39.00
2018-05-26T07:56:54.111Z,39.00
2018-05-26T07:59:21.659Z,39.90
2018-05-26T08:01:49.197Z,40.60
2018-05-26T08:04:16.747Z,41.20
2018-05-26T08:06:44.275Z,41.80
2018-05-26T08:09:11.817Z,42.60
2018-05-26T08:11:39.336Z,43.40
2018-05-26T08:14:06.878Z,44.00
2018-05-26T08:16:34.422Z,44.10
2018-05-26T08:19:01.973Z,44.30
2018-05-26T08:21:29.512Z,44.20
2018-05-26T08:23:57.068Z,43.50
2018-05-26T08:26:24.615Z,42.40
2018-05-26T08:28:52.163Z,41.30
2018-05-26T08:31:19.695Z,40.10
2018-05-26T08:33:47.265Z,39.00
2018-05-26T08:36:14.785Z,38.00
2018-05-26T08:38:42.303Z,37.10
2018-05-26T08:41:09.830Z,36.50
2018-05-26T08:43:37.346Z,35.90
2018-05-26T08:46:04.867Z,35.10
2018-05-26T08:48:32.428Z,34.40
2018-05-26T08:51:00.555Z,34.00
2018-05-26T08:53:28.077Z,33.60
2018-05-26T08:55:55.596Z,33.40
2018-05-26T08:58:23.108Z,33.20
2018-05-26T09:00:50.632Z,33.00
2018-05-26T09:03:18.151Z,32.80
2018-05-26T09:05:46.433Z,32.50
2018-05-26T09:08:13.947Z,32.50
2018-05-26T09:10:41.476Z,32.30
2018-05-26T09:13:08.999Z,32.20
2018-05-26T09:15:37.283Z,31.90
2018-05-26T09:18:04.795Z,31.90
2018-05-26T09:20:32.308Z,31.80
2018-05-26T09:22:59.824Z,31.70
2018-05-26T09:25:27.391Z,31.70
2018-05-26T09:27:54.876Z,31.70
2018-05-26T09:30:23.689Z,31.20
2018-05-26T09:32:51.210Z,31.20
2018-05-26T09:35:18.718Z,31.20
2018-05-26T09:37:46.232Z,31.30
2018-05-26T09:40:13.776Z,31.30
2018-05-26T09:42:41.471Z,31.30
2018-05-26T09:45:09.012Z,31.30
2018-05-26T09:47:36.536Z,31.20
2018-05-26T09:50:04.076Z,31.10
2018-05-26T09:52:31.590Z,31.10
2018-05-26T09:54:59.151Z,31.20
2018-05-26T09:57:26.661Z,31.20
2018-05-26T09:59:54.199Z,31.10
2018-05-26T10:02:21.716Z,31.10
2018-05-26T10:04:49.251Z,31.10
2018-05-26T10:07:16.775Z,31.10
2018-05-26T10:09:44.297Z,31.00
2018-05-26T10:12:11.815Z,30.80
2018-05-26T10:14:39.329Z,30.90
2018-05-26T10:17:06.839Z,30.90
2018-05-26T10:19:34.359Z,30.90
2018-05-26T10:22:01.877Z,30.90
2018-05-26T10:24:29.395Z,30.90
2018-05-26T10:26:57.937Z,30.80
2018-05-26T10:29:25.463Z,30.80
2018-05-26T10:31:53.001Z,30.80
2018-05-26T10:34:20.530Z,30.90
2018-05-26T10:36:48.048Z,30.90
2018-05-26T10:39:15.571Z,30.80
2018-05-26T10:41:43.083Z,30.80
2018-05-26T10:44:10.602Z,30.70
2018-05-26T10:46:38.888Z,30.80
2018-05-26T10:49:06.416Z,30.80
2018-05-26T10:51:33.932Z,30.70
2018-05-26T10:54:02.175Z,30.70
2018-05-26T10:56:29.700Z,30.70
2018-05-26T10:58:57.223Z,30.70
2018-05-26T11:01:24.771Z,30.60
2018-05-26T11:03:52.295Z,30.60
2018-05-26T11:06:19.828Z,30.50
2018-05-26T11:08:47.348Z,30.40
2018-05-26T11:11:14.861Z,30.30
2018-05-26T11:13:42.390Z,30.20
2018-05-26T11:16:10.079Z,30.20
2018-05-26T11:18:37.436Z,30.20
2018-05-26T11:21:04.949Z,30.10
2018-05-26T11:23:32.497Z,30.10
2018-05-26T11:26:00.967Z,30.00
2018-05-26T11:28:28.419Z,30.00
2018-05-26T11:30:55.949Z,30.00
2018-05-26T11:33:24.324Z,30.10
2018-05-26T11:35:51.851Z,30.20
2018-05-26T11:38:19.377Z,30.20
2018-05-26T11:40:46.915Z,30.30
2018-05-26T11:43:14.427Z,30.20
2018-05-26T11:45:42.619Z,30.20
2018-05-26T11:48:10.141Z,30.20
2018-05-26T11:50:38.427Z,30.30
2018-05-26T11:53:06.707Z,30.20
2018-05-26T11:55:34.998Z,30.30
2018-05-26T11:58:02.526Z,30.20
2018-05-26T12:00:30.822Z,30.40
2018-05-26T12:02:59.112Z,30.40
2018-05-26T12:05:26.647Z,30.40
2018-05-26T12:07:54.930Z,30.40
2018-05-26T12:10:23.228Z,30.40
2018-05-26T12:12:50.761Z,30.40
2018-05-26T12:15:19.048Z,30.50
2018-05-26T12:17:46.565Z,30.50
2018-05-26T12:20:14.084Z,30.60
2018-05-26T12:22:41.612Z,30.60
2018-05-26T12:25:09.131Z,30.70
2018-05-26T12:27:36.651Z,30.70
2018-05-26T12:30:04.933Z,30.60
2018-05-26T12:32:32.448Z,30.60
2018-05-26T12:34:59.963Z,30.50
2018-05-26T12:37:27.479Z,30.50
2018-05-26T12:39:55.003Z,30.50
2018-05-26T12:42:22.512Z,30.50
2018-05-26T12:44:50.039Z,30.60
2018-05-26T12:47:17.840Z,30.40
2018-05-26T12:49:46.120Z,30.40
2018-05-26T12:52:13.674Z,30.40
2018-05-26T12:54:41.709Z,30.40
2018-05-26T12:57:09.220Z,30.40
2018-05-26T12:59:37.537Z,30.50
2018-05-26T13:02:05.071Z,30.40
2018-05-26T13:04:32.583Z,30.30
2018-05-26T13:07:00.123Z,30.20
2018-05-26T13:09:27.644Z,30.30
2018-05-26T13:11:55.185Z,30.30
2018-05-26T13:14:22.703Z,30.20
2018-05-26T13:16:50.495Z,30.10
2018-05-26T13:19:18.009Z,30.10
2018-05-26T13:21:45.580Z,30.00
2018-05-26T13:24:13.093Z,30.00
2018-05-26T13:26:40.642Z,30.10
2018-05-26T13:29:08.160Z,30.10
2018-05-26T13:31:35.685Z,30.10
2018-05-26T13:34:04.914Z,30.10
2018-05-26T13:36:32.690Z,30.10
2018-05-26T13:39:00.222Z,30.20
2018-05-26T13:41:27.743Z,30.20
2018-05-26T13:43:55.280Z,30.30
2018-05-26T13:46:22.796Z,30.30
2018-05-26T13:48:50.318Z,30.40
2018-05-26T13:51:17.853Z,30.50
2018-05-26T13:53:45.383Z,30.70
2018-05-26T13:56:12.975Z,30.60
2018-05-26T13:58:40.475Z,30.60
2018-05-26T14:01:07.994Z,30.70
2018-05-26T14:03:35.512Z,30.80
2018-05-26T14:06:03.044Z,30.80
2018-05-26T14:08:30.566Z,30.70
2018-05-26T14:10:58.686Z,30.80
2018-05-26T14:13:26.611Z,30.80
2018-05-26T14:15:54.439Z,30.70
2018-05-26T14:18:21.951Z,30.70
2018-05-26T14:20:49.638Z,30.70
2018-05-26T14:23:17.160Z,30.70
2018-05-26T14:25:44.676Z,30.60
2018-05-26T14:28:12.195Z,30.60
2018-05-26T14:30:39.743Z,30.60
2018-05-26T14:33:07.275Z,30.50
2018-05-26T14:35:34.794Z,30.50
2018-05-26T14:38:02.311Z,30.60
2018-05-26T14:40:29.823Z,30.70
2018-05-26T14:42:57.335Z,30.60
2018-05-26T14:45:24.846Z,30.50
2018-05-26T14:47:52.359Z,30.50
2018-05-26T14:50:19.884Z,30.30
2018-05-26T14:52:47.411Z,30.10
2018-05-26T14:55:14.927Z,30.10
2018-05-26T14:57:42.440Z,30.20
2018-05-26T15:00:09.966Z,30.20
2018-05-26T15:02:38.249Z,30.30
2018-05-26T15:05:05.788Z,30.30
2018-05-26T15:07:33.308Z,30.20
2018-05-26T15:10:01.586Z,30.20
2018-05-26T15:12:29.729Z,30.20
2018-05-26T15:14:57.258Z,30.20
2018-05-26T15:17:24.779Z,30.20
2018-05-26T15:19:52.291Z,30.20
2018-05-26T15:22:20.071Z,30.20
2018-05-26T15:24:47.583Z,30.10
2018-05-26T15:27:15.107Z,29.90
2018-05-26T15:29:42.615Z,29.80
2018-05-26T15:32:10.137Z,29.60
2018-05-26T15:34:37.743Z,29.60
2018-05-26T15:37:05.270Z,29.60
2018-05-26T15:39:33.591Z,29.60
2018-05-26T15:42:01.107Z,29.50
2018-05-26T15:44:28.625Z,29.50
2018-05-26T15:46:56.138Z,29.30
2018-05-26T15:49:23.667Z,29.20
2018-05-26T15:51:51.970Z,29.00
2018-05-26T15:54:20.163Z,29.00
2018-05-26T15:56:47.683Z,29.00
2018-05-26T15:59:15.257Z,29.00
2018-05-26T16:01:42.790Z,29.00
2018-05-26T16:04:10.323Z,28.90
2018-05-26T16:06:37.831Z,28.90
2018-05-26T16:09:05.366Z,28.90
2018-05-26T16:11:32.879Z,28.90
2018-05-26T16:14:00.971Z,29.00
2018-05-26T16:16:28.484Z,28.90
2018-05-26T16:18:56.002Z,29.00
2018-05-26T16:21:23.520Z,29.00
2018-05-26T16:23:51.041Z,29.00
2018-05-26T16:26:18.770Z,29.00
2018-05-26T16:28:46.287Z,29.00
2018-05-26T16:31:13.814Z,29.00
2018-05-26T16:33:41.343Z,29.00
2018-05-26T16:36:08.860Z,28.90
2018-05-26T16:38:36.383Z,28.90
2018-05-26T16:41:03.897Z,28.80
2018-05-26T16:43:31.679Z,28.80
2018-05-26T16:45:59.191Z,28.80
2018-05-26T16:48:26.708Z,28.70
2018-05-26T16:50:54.228Z,28.70
2018-05-26T16:53:21.753Z,28.60
2018-05-26T16:55:49.278Z,28.60
2018-05-26T16:58:16.800Z,28.50
2018-05-26T17:00:44.311Z,28.50
2018-05-26T17:03:12.415Z,28.50
2018-05-26T17:05:40.056Z,28.50
2018-05-26T17:08:07.590Z,28.40
2018-05-26T17:10:35.109Z,28.40
2018-05-26T17:13:02.623Z,28.30
2018-05-26T17:15:30.139Z,28.30
2018-05-26T17:17:57.665Z,28.30
2018-05-26T17:20:25.205Z,28.20
2018-05-26T17:22:52.715Z,28.20
2018-05-26T17:25:20.248Z,28.10
2018-05-26T17:27:48.525Z,28.00
2018-05-26T17:30:16.065Z,28.00
2018-05-26T17:32:43.634Z,28.00
2018-05-26T17:35:11.166Z,27.90
2018-05-26T17:37:38.694Z,27.80
2018-05-26T17:40:06.243Z,27.80
2018-05-26T17:42:33.765Z,27.70
2018-05-26T17:45:01.326Z,27.70
2018-05-26T17:47:28.844Z,27.60
2018-05-26T17:49:56.376Z,27.60
2018-05-26T17:52:23.907Z,27.50
2018-05-26T17:54:51.410Z,27.40
2018-05-26T17:57:18.930Z,27.40
2018-05-26T17:59:46.443Z,27.30
2018-05-26T18:02:13.963Z,27.30
2018-05-26T18:04:41.484Z,27.30
2018-05-26T18:07:09.008Z,27.20
2018-05-26T18:09:36.528Z,27.20
2018-05-26T18:12:04.072Z,27.10
2018-05-26T18:14:31.595Z,27.00
2018-05-26T18:16:59.117Z,27.00
2018-05-26T18:19:26.673Z,26.90
2018-05-26T18:21:54.178Z,26.90
2018-05-26T18:24:21.695Z,26.80
2018-05-26T18:26:49.241Z,26.80
2018-05-26T18:29:16.755Z,26.60
2018-05-26T18:31:44.274Z,26.60
2018-05-26T18:34:11.796Z,26.50
2018-05-26T18:36:39.317Z,26.40
2018-05-26T18:39:06.866Z,26.30
2018-05-26T18:41:34.374Z,26.30
2018-05-26T18:44:02.668Z,26.10
2018-05-26T18:46:30.193Z,26.10
2018-05-26T18:48:57.721Z,26.00
2018-05-26T18:51:25.247Z,26.00
2018-05-26T18:53:52.762Z,25.90
2018-05-26T18:56:21.052Z,25.70
2018-05-26T18:58:48.576Z,25.70
2018-05-26T19:01:16.086Z,25.60
2018-05-26T19:03:44.371Z,25.40
2018-05-26T19:06:11.912Z,25.40
2018-05-26T19:08:39.438Z,25.30
2018-05-26T19:11:06.976Z,25.30
2018-05-26T19:13:34.499Z,25.20
2018-05-26T19:16:02.802Z,25.10
2018-05-26T19:18:30.329Z,25.00
2018-05-26T19:20:58.634Z,24.90
2018-05-26T19:23:26.151Z,24.90
2018-05-26T19:25:53.965Z,24.90
2018-05-26T19:28:21.491Z,24.80
2018-05-26T19:30:49.021Z,24.70
2018-05-26T19:33:16.543Z,24.60
2018-05-26T19:35:44.069Z,24.60
2018-05-26T19:38:11.578Z,24.50
2018-05-26T19:40:39.116Z,24.40
2018-05-26T19:43:06.641Z,24.40
2018-05-26T19:45:34.165Z,24.30
2018-05-26T19:48:01.692Z,24.20
2018-05-26T19:50:29.232Z,24.10
2018-05-26T19:52:56.755Z,24.00
2018-05-26T19:55:24.268Z,24.00
2018-05-26T19:57:52.548Z,23.80
2018-05-26T20:00:20.060Z,23.80
2018-05-26T20:02:47.587Z,23.80
2018-05-26T20:05:15.109Z,23.80
2018-05-26T20:07:43.439Z,23.60
2018-05-26T20:10:10.966Z,23.60
2018-05-26T20:12:38.482Z,23.60
2018-05-26T20:15:06.004Z,23.50
2018-05-26T20:17:33.527Z,23.50
2018-05-26T20:20:01.058Z,23.40
2018-05-26T20:22:28.699Z,23.40
2018-05-26T20:24:56.230Z,23.30
2018-05-26T20:27:23.795Z,23.30
2018-05-26T20:29:51.331Z,23.20
2018-05-26T20:32:18.877Z,23.20
2018-05-26T20:34:47.355Z,23.10
2018-05-26T20:37:15.227Z,23.10
2018-05-26T20:39:42.857Z,23.00
2018-05-26T20:42:10.408Z,23.00
2018-05-26T20:44:39.647Z,23.00
2018-05-26T20:47:08.129Z,22.90
2018-05-26T20:49:35.670Z,22.90
2018-05-26T20:52:03.219Z,22.80
2018-05-26T20:54:30.756Z,22.80
2018-05-26T20:56:58.315Z,22.70
2018-05-26T20:59:27.732Z,22.70
2018-05-26T21:01:55.275Z,22.70
2018-05-26T21:04:22.803Z,22.60
2018-05-26T21:06:50.380Z,22.60
2018-05-26T21:09:17.907Z,22.50
2018-05-26T21:11:46.661Z,22.50
2018-05-26T21:14:14.187Z,22.40
2018-05-26T21:16:42.473Z,22.40
2018-05-26T21:19:10.000Z,22.40
2018-05-26T21:21:37.517Z,22.30
2018-05-26T21:24:05.184Z,22.30
2018-05-26T21:26:32.739Z,22.30
2018-05-26T21:29:00.307Z,22.20
2018-05-26T21:31:27.843Z,22.10
2018-05-26T21:33:55.379Z,22.10
2018-05-26T21:36:22.908Z,22.00
2018-05-26T21:38:50.424Z,22.00
2018-05-26T21:41:18.058Z,22.00
2018-05-26T21:43:45.583Z,22.00
2018-05-26T21:46:13.131Z,21.90
2018-05-26T21:48:40.791Z,21.90
2018-05-26T21:51:08.331Z,21.90
2018-05-26T21:53:35.853Z,21.80
2018-05-26T21:56:03.370Z,21.80
2018-05-26T21:58:30.887Z,21.80
2018-05-26T22:00:58.432Z,21.80
2018-05-26T22:03:25.979Z,21.80
2018-05-26T22:05:53.504Z,21.70
2018-05-26T22:08:21.112Z,21.70
2018-05-26T22:10:48.647Z,21.70
2018-05-26T22:13:16.192Z,21.60
2018-05-26T22:15:43.699Z,21.60
2018-05-26T22:18:11.403Z,21.60
2018-05-26T22:20:38.931Z,21.60
2018-05-26T22:23:06.539Z,21.60
2018-05-26T22:25:34.056Z,21.60
2018-05-26T22:28:02.367Z,21.50
2018-05-26T22:30:29.892Z,21.50
2018-05-26T22:32:57.444Z,21.50
2018-05-26T22:35:25.742Z,21.50
2018-05-26T22:37:53.340Z,21.50
2018-05-26T22:40:21.745Z,21.50
2018-05-26T22:42:49.283Z,21.50
2018-05-26T22:45:16.838Z,21.50
2018-05-26T22:47:44.622Z,21.50
2018-05-26T22:50:12.189Z,21.50
2018-05-26T22:52:39.706Z,21.50
2018-05-26T22:55:07.227Z,21.40
2018-05-26T22:57:34.734Z,21.40
2018-05-26T23:00:02.243Z,21.40
2018-05-26T23:02:29.818Z,21.40
2018-05-26T23:04:57.338Z,21.40
2018-05-26T23:07:24.870Z,21.30
2018-05-26T23:09:52.383Z,21.30
2018-05-26T23:12:19.907Z,21.30
2018-05-26T23:14:47.421Z,21.30
2018-05-26T23:17:14.947Z,21.30
2018-05-26T23:19:43.223Z,21.20
2018-05-26T23:22:10.748Z,21.20
2018-05-26T23:24:39.103Z,21.20
2018-05-26T23:27:06.626Z,21.20
2018-05-26T23:29:34.159Z,21.20
2018-05-26T23:32:01.685Z,21.10
2018-05-26T23:34:29.907Z,21.10
2018-05-26T23:36:57.431Z,21.10
2018-05-26T23:39:24.964Z,21.10
2018-05-26T23:41:52.479Z,21.10
2018-05-26T23:44:19.996Z,21.10
2018-05-26T23:46:48.349Z,21.00
2018-05-26T23:49:15.869Z,21.00
2018-05-26T23:51:43.391Z,21.00
2018-05-26T23:54:12.019Z,20.90
2018-05-26T23:56:39.535Z,20.90
2018-05-26T23:59:07.057Z,20.90
